sensor_id;sensor_type;location;lat;lon;timestamp;P1;durP1;ratioP1;P2;durP2;ratioP2
4198;SDS011;2113;50.946;14.610;2023-06-22T00:00:54;17.83;;;8.90;;
4198;SDS011;2113;50.946;14.610;2023-06-22T00:03:23;13.38;;;8.38;;
4198;SDS011;2113;50.946;14.610;2023-06-22T00:05:53;13.05;;;9.52;;
4198;SDS011;2113;50.946;14.610;2023-06-22T00:08:21;10.52;;;8.70;;
4198;SDS011;2113;50.946;14.610;2023-06-22T00:10:49;13.52;;;9.18;;
4198;SDS011;2113;50.946;14.610;2023-06-22T00:13:17;9.82;;;8.13;;
4198;SDS011;2113;50.946;14.610;2023-06-22T00:15:45;10.38;;;8.50;;
4198;SDS011;2113;50.946;14.610;2023-06-22T00:18:13;11.10;;;8.68;;
4198;SDS011;2113;50.946;14.610;2023-06-22T00:20:42;9.50;;;7.68;;
4198;SDS011;2113;50.946;14.610;2023-06-22T00:23:13;13.07;;;9.20;;
4198;SDS011;2113;50.946;14.610;2023-06-22T00:25:42;14.38;;;9.20;;
4198;SDS011;2113;50.946;14.610;2023-06-22T00:28:10;12.18;;;10.07;;
4198;SDS011;2113;50.946;14.610;2023-06-22T00:30:38;11.57;;;9.15;;
4198;SDS011;2113;50.946;14.610;2023-06-22T00:33:06;11.07;;;8.73;;
4198;SDS011;2113;50.946;14.610;2023-06-22T00:35:35;11.77;;;9.68;;
4198;SDS011;2113;50.946;14.610;2023-06-22T00:38:03;12.88;;;9.45;;
4198;SDS011;2113;50.946;14.610;2023-06-22T00:40:33;10.80;;;8.80;;
4198;SDS011;2113;50.946;14.610;2023-06-22T00:43:01;11.50;;;8.98;;
4198;SDS011;2113;50.946;14.610;2023-06-22T00:45:29;10.43;;;8.90;;
4198;SDS011;2113;50.946;14.610;2023-06-22T00:47:57;11.52;;;9.18;;
4198;SDS011;2113;50.946;14.610;2023-06-22T00:50:27;12.02;;;9.18;;
4198;SDS011;2113;50.946;14.610;2023-06-22T00:53:00;16.27;;;8.63;;
4198;SDS011;2113;50.946;14.610;2023-06-22T00:55:36;10.90;;;9.80;;
4198;SDS011;2113;50.946;14.610;2023-06-22T00:58:10;12.18;;;9.52;;
4198;SDS011;2113;50.946;14.610;2023-06-22T01:00:40;13.52;;;10.25;;
4198;SDS011;2113;50.946;14.610;2023-06-22T01:03:08;13.20;;;10.07;;
4198;SDS011;2113;50.946;14.610;2023-06-22T01:05:37;10.88;;;8.40;;
4198;SDS011;2113;50.946;14.610;2023-06-22T01:08:10;14.07;;;8.95;;
4198;SDS011;2113;50.946;14.610;2023-06-22T01:10:57;11.23;;;8.95;;
4198;SDS011;2113;50.946;14.610;2023-06-22T01:13:32;9.88;;;7.55;;
4198;SDS011;2113;50.946;14.610;2023-06-22T01:16:05;10.85;;;9.40;;
4198;SDS011;2113;50.946;14.610;2023-06-22T01:18:37;11.90;;;9.10;;
4198;SDS011;2113;50.946;14.610;2023-06-22T01:21:09;14.18;;;9.00;;
4198;SDS011;2113;50.946;14.610;2023-06-22T01:23:49;11.75;;;8.75;;
4198;SDS011;2113;50.946;14.610;2023-06-22T01:26:25;10.80;;;8.07;;
4198;SDS011;2113;50.946;14.610;2023-06-22T01:29:04;9.73;;;8.27;;
4198;SDS011;2113;50.946;14.610;2023-06-22T01:31:34;14.05;;;9.48;;
4198;SDS011;2113;50.946;14.610;2023-06-22T01:34:03;15.10;;;9.70;;
4198;SDS011;2113;50.946;14.610;2023-06-22T01:36:35;11.98;;;9.25;;
4198;SDS011;2113;50.946;14.610;2023-06-22T01:39:03;14.65;;;9.07;;
4198;SDS011;2113;50.946;14.610;2023-06-22T01:41:34;13.65;;;10.07;;
4198;SDS011;2113;50.946;14.610;2023-06-22T01:44:06;12.85;;;9.48;;
4198;SDS011;2113;50.946;14.610;2023-06-22T01:46:36;11.88;;;9.38;;
4198;SDS011;2113;50.946;14.610;2023-06-22T01:49:06;14.75;;;9.25;;
4198;SDS011;2113;50.946;14.610;2023-06-22T01:51:35;12.35;;;9.25;;
4198;SDS011;2113;50.946;14.610;2023-06-22T01:54:05;13.45;;;10.00;;
4198;SDS011;2113;50.946;14.610;2023-06-22T01:56:34;12.57;;;9.35;;
4198;SDS011;2113;50.946;14.610;2023-06-22T01:59:04;15.38;;;9.30;;
4198;SDS011;2113;50.946;14.610;2023-06-22T02:01:40;13.95;;;9.05;;
4198;SDS011;2113;50.946;14.610;2023-06-22T02:04:12;15.10;;;9.90;;
4198;SDS011;2113;50.946;14.610;2023-06-22T02:06:47;10.57;;;9.02;;
4198;SDS011;2113;50.946;14.610;2023-06-22T02:09:22;11.77;;;9.02;;
4198;SDS011;2113;50.946;14.610;2023-06-22T02:11:53;12.95;;;9.45;;
4198;SDS011;2113;50.946;14.610;2023-06-22T02:14:26;11.95;;;8.90;;
4198;SDS011;2113;50.946;14.610;2023-06-22T02:16:55;15.00;;;8.70;;
4198;SDS011;2113;50.946;14.610;2023-06-22T02:19:26;9.98;;;8.80;;
4198;SDS011;2113;50.946;14.610;2023-06-22T02:21:59;12.70;;;9.13;;
4198;SDS011;2113;50.946;14.610;2023-06-22T02:24:27;11.73;;;9.30;;
4198;SDS011;2113;50.946;14.610;2023-06-22T02:26:57;16.58;;;9.98;;
4198;SDS011;2113;50.946;14.610;2023-06-22T02:29:28;11.35;;;8.15;;
4198;SDS011;2113;50.946;14.610;2023-06-22T02:31:56;14.35;;;10.27;;
4198;SDS011;2113;50.946;14.610;2023-06-22T02:34:24;14.75;;;9.88;;
4198;SDS011;2113;50.946;14.610;2023-06-22T02:36:52;12.25;;;8.25;;
4198;SDS011;2113;50.946;14.610;2023-06-22T02:39:21;12.82;;;9.70;;
4198;SDS011;2113;50.946;14.610;2023-06-22T02:41:50;11.02;;;9.85;;
4198;SDS011;2113;50.946;14.610;2023-06-22T02:44:21;15.23;;;9.13;;
4198;SDS011;2113;50.946;14.610;2023-06-22T02:46:51;17.08;;;10.00;;
4198;SDS011;2113;50.946;14.610;2023-06-22T02:49:20;15.25;;;10.15;;
4198;SDS011;2113;50.946;14.610;2023-06-22T02:51:49;13.07;;;10.15;;
4198;SDS011;2113;50.946;14.610;2023-06-22T02:54:19;15.25;;;10.00;;
4198;SDS011;2113;50.946;14.610;2023-06-22T02:56:50;18.95;;;11.07;;
4198;SDS011;2113;50.946;14.610;2023-06-22T02:59:20;13.00;;;9.90;;
4198;SDS011;2113;50.946;14.610;2023-06-22T03:01:54;13.60;;;9.30;;
4198;SDS011;2113;50.946;14.610;2023-06-22T03:04:26;13.77;;;9.98;;
4198;SDS011;2113;50.946;14.610;2023-06-22T03:06:54;13.90;;;11.15;;
4198;SDS011;2113;50.946;14.610;2023-06-22T03:09:22;14.90;;;11.05;;
4198;SDS011;2113;50.946;14.610;2023-06-22T03:11:51;14.93;;;9.65;;
4198;SDS011;2113;50.946;14.610;2023-06-22T03:14:20;13.82;;;10.80;;
4198;SDS011;2113;50.946;14.610;2023-06-22T03:16:49;15.38;;;11.57;;
4198;SDS011;2113;50.946;14.610;2023-06-22T03:19:19;12.88;;;9.95;;
4198;SDS011;2113;50.946;14.610;2023-06-22T03:21:48;12.80;;;10.48;;
4198;SDS011;2113;50.946;14.610;2023-06-22T03:24:16;15.07;;;10.32;;
4198;SDS011;2113;50.946;14.610;2023-06-22T03:26:44;15.73;;;10.38;;
4198;SDS011;2113;50.946;14.610;2023-06-22T03:29:13;12.23;;;9.15;;
4198;SDS011;2113;50.946;14.610;2023-06-22T03:31:44;14.30;;;10.60;;
4198;SDS011;2113;50.946;14.610;2023-06-22T03:34:13;16.10;;;10.13;;
4198;SDS011;2113;50.946;14.610;2023-06-22T03:36:43;14.50;;;10.18;;
4198;SDS011;2113;50.946;14.610;2023-06-22T03:39:12;19.85;;;11.32;;
4198;SDS011;2113;50.946;14.610;2023-06-22T03:41:41;13.40;;;9.88;;
4198;SDS011;2113;50.946;14.610;2023-06-22T03:44:09;14.60;;;11.80;;
4198;SDS011;2113;50.946;14.610;2023-06-22T03:46:38;13.85;;;10.75;;
4198;SDS011;2113;50.946;14.610;2023-06-22T03:49:07;14.55;;;11.45;;
4198;SDS011;2113;50.946;14.610;2023-06-22T03:51:35;13.15;;;9.82;;
4198;SDS011;2113;50.946;14.610;2023-06-22T03:54:04;16.85;;;12.18;;
4198;SDS011;2113;50.946;14.610;2023-06-22T03:56:32;18.73;;;11.73;;
4198;SDS011;2113;50.946;14.610;2023-06-22T03:59:00;13.40;;;10.40;;
4198;SDS011;2113;50.946;14.610;2023-06-22T04:01:28;17.60;;;10.43;;
4198;SDS011;2113;50.946;14.610;2023-06-22T04:03:56;12.75;;;9.20;;
4198;SDS011;2113;50.946;14.610;2023-06-22T04:06:24;12.88;;;10.68;;
4198;SDS011;2113;50.946;14.610;2023-06-22T04:08:52;13.35;;;10.75;;
4198;SDS011;2113;50.946;14.610;2023-06-22T04:11:22;12.88;;;11.18;;
4198;SDS011;2113;50.946;14.610;2023-06-22T04:13:50;16.27;;;11.98;;
4198;SDS011;2113;50.946;14.610;2023-06-22T04:16:18;16.48;;;10.82;;
4198;SDS011;2113;50.946;14.610;2023-06-22T04:18:46;13.75;;;11.73;;
4198;SDS011;2113;50.946;14.610;2023-06-22T04:21:14;16.58;;;12.52;;
4198;SDS011;2113;50.946;14.610;2023-06-22T04:23:42;14.05;;;11.30;;
4198;SDS011;2113;50.946;14.610;2023-06-22T04:26:10;17.13;;;13.05;;
4198;SDS011;2113;50.946;14.610;2023-06-22T04:28:40;15.93;;;13.00;;
4198;SDS011;2113;50.946;14.610;2023-06-22T04:31:08;18.40;;;14.55;;
4198;SDS011;2113;50.946;14.610;2023-06-22T04:33:36;16.42;;;14.23;;
4198;SDS011;2113;50.946;14.610;2023-06-22T04:36:07;18.50;;;13.10;;
4198;SDS011;2113;50.946;14.610;2023-06-22T04:38:35;14.35;;;12.05;;
4198;SDS011;2113;50.946;14.610;2023-06-22T04:41:03;15.15;;;12.60;;
4198;SDS011;2113;50.946;14.610;2023-06-22T04:43:33;15.95;;;13.55;;
4198;SDS011;2113;50.946;14.610;2023-06-22T04:46:02;17.67;;;14.90;;
4198;SDS011;2113;50.946;14.610;2023-06-22T04:48:30;18.55;;;14.45;;
4198;SDS011;2113;50.946;14.610;2023-06-22T04:50:59;20.15;;;15.70;;
4198;SDS011;2113;50.946;14.610;2023-06-22T04:53:30;15.15;;;12.52;;
4198;SDS011;2113;50.946;14.610;2023-06-22T04:55:58;19.38;;;14.65;;
4198;SDS011;2113;50.946;14.610;2023-06-22T04:58:26;17.27;;;13.80;;
4198;SDS011;2113;50.946;14.610;2023-06-22T05:00:55;19.75;;;15.80;;
4198;SDS011;2113;50.946;14.610;2023-06-22T05:03:25;17.90;;;15.82;;
4198;SDS011;2113;50.946;14.610;2023-06-22T05:05:54;21.33;;;14.98;;
4198;SDS011;2113;50.946;14.610;2023-06-22T05:08:22;18.05;;;15.35;;
4198;SDS011;2113;50.946;14.610;2023-06-22T05:10:53;19.52;;;14.73;;
4198;SDS011;2113;50.946;14.610;2023-06-22T05:13:31;19.77;;;16.45;;
4198;SDS011;2113;50.946;14.610;2023-06-22T05:15:59;19.65;;;15.40;;
4198;SDS011;2113;50.946;14.610;2023-06-22T05:18:30;18.70;;;13.65;;
4198;SDS011;2113;50.946;14.610;2023-06-22T05:20:59;18.05;;;14.43;;
4198;SDS011;2113;50.946;14.610;2023-06-22T05:23:31;19.83;;;15.43;;
4198;SDS011;2113;50.946;14.610;2023-06-22T05:25:59;19.88;;;14.23;;
4198;SDS011;2113;50.946;14.610;2023-06-22T05:28:27;20.77;;;15.93;;
4198;SDS011;2113;50.946;14.610;2023-06-22T05:30:55;17.02;;;15.25;;
4198;SDS011;2113;50.946;14.610;2023-06-22T05:33:23;14.60;;;12.98;;
4198;SDS011;2113;50.946;14.610;2023-06-22T05:35:53;17.27;;;14.98;;
4198;SDS011;2113;50.946;14.610;2023-06-22T05:38:21;18.05;;;15.18;;
4198;SDS011;2113;50.946;14.610;2023-06-22T05:40:49;18.08;;;14.93;;
4198;SDS011;2113;50.946;14.610;2023-06-22T05:43:17;17.83;;;15.25;;
4198;SDS011;2113;50.946;14.610;2023-06-22T05:45:45;17.88;;;15.98;;
4198;SDS011;2113;50.946;14.610;2023-06-22T05:48:13;16.25;;;13.48;;
4198;SDS011;2113;50.946;14.610;2023-06-22T05:50:41;15.52;;;13.90;;
4198;SDS011;2113;50.946;14.610;2023-06-22T05:53:11;16.52;;;13.35;;
4198;SDS011;2113;50.946;14.610;2023-06-22T05:55:39;15.70;;;13.10;;
4198;SDS011;2113;50.946;14.610;2023-06-22T05:58:07;15.07;;;13.32;;
4198;SDS011;2113;50.946;14.610;2023-06-22T06:00:36;15.10;;;13.50;;
4198;SDS011;2113;50.946;14.610;2023-06-22T06:03:05;17.15;;;15.30;;
4198;SDS011;2113;50.946;14.610;2023-06-22T06:05:33;17.00;;;14.80;;
4198;SDS011;2113;50.946;14.610;2023-06-22T06:08:06;18.08;;;14.95;;
4198;SDS011;2113;50.946;14.610;2023-06-22T06:10:36;17.60;;;14.98;;
4198;SDS011;2113;50.946;14.610;2023-06-22T06:13:04;15.82;;;14.15;;
4198;SDS011;2113;50.946;14.610;2023-06-22T06:15:32;17.65;;;13.63;;
4198;SDS011;2113;50.946;14.610;2023-06-22T06:18:01;14.35;;;12.85;;
4198;SDS011;2113;50.946;14.610;2023-06-22T06:20:32;17.27;;;15.30;;
4198;SDS011;2113;50.946;14.610;2023-06-22T06:23:00;19.88;;;13.98;;
4198;SDS011;2113;50.946;14.610;2023-06-22T06:25:28;16.15;;;12.95;;
4198;SDS011;2113;50.946;14.610;2023-06-22T06:27:57;16.40;;;13.55;;
4198;SDS011;2113;50.946;14.610;2023-06-22T06:30:26;15.15;;;13.23;;
4198;SDS011;2113;50.946;14.610;2023-06-22T06:32:54;17.75;;;14.48;;
4198;SDS011;2113;50.946;14.610;2023-06-22T06:35:22;16.83;;;12.82;;
4198;SDS011;2113;50.946;14.610;2023-06-22T06:37:51;14.73;;;13.00;;
4198;SDS011;2113;50.946;14.610;2023-06-22T06:40:19;16.40;;;14.70;;
4198;SDS011;2113;50.946;14.610;2023-06-22T06:42:47;15.55;;;13.85;;
4198;SDS011;2113;50.946;14.610;2023-06-22T06:45:18;14.55;;;13.13;;
4198;SDS011;2113;50.946;14.610;2023-06-22T06:47:49;15.90;;;14.30;;
4198;SDS011;2113;50.946;14.610;2023-06-22T06:50:18;14.35;;;12.73;;
4198;SDS011;2113;50.946;14.610;2023-06-22T06:52:47;17.57;;;13.87;;
4198;SDS011;2113;50.946;14.610;2023-06-22T06:55:17;17.07;;;14.50;;
4198;SDS011;2113;50.946;14.610;2023-06-22T06:57:46;25.90;;;13.87;;
4198;SDS011;2113;50.946;14.610;2023-06-22T07:00:15;12.60;;;10.53;;
4198;SDS011;2113;50.946;14.610;2023-06-22T07:02:45;18.10;;;11.20;;
4198;SDS011;2113;50.946;14.610;2023-06-22T07:05:15;13.70;;;11.80;;
4198;SDS011;2113;50.946;14.610;2023-06-22T07:07:43;13.33;;;12.03;;
4198;SDS011;2113;50.946;14.610;2023-06-22T07:10:11;14.07;;;11.30;;
4198;SDS011;2113;50.946;14.610;2023-06-22T07:12:39;14.20;;;12.80;;
4198;SDS011;2113;50.946;14.610;2023-06-22T07:15:08;14.53;;;13.07;;
4198;SDS011;2113;50.946;14.610;2023-06-22T07:17:39;13.60;;;12.20;;
4198;SDS011;2113;50.946;14.610;2023-06-22T07:20:10;12.87;;;11.60;;
4198;SDS011;2113;50.946;14.610;2023-06-22T07:22:40;12.77;;;11.50;;
4198;SDS011;2113;50.946;14.610;2023-06-22T07:25:12;12.93;;;11.60;;
4198;SDS011;2113;50.946;14.610;2023-06-22T07:27:45;12.17;;;10.87;;
4198;SDS011;2113;50.946;14.610;2023-06-22T07:30:16;12.80;;;11.17;;
4198;SDS011;2113;50.946;14.610;2023-06-22T07:32:44;12.97;;;11.70;;
4198;SDS011;2113;50.946;14.610;2023-06-22T07:35:16;13.10;;;10.83;;
4198;SDS011;2113;50.946;14.610;2023-06-22T07:37:44;11.40;;;10.30;;
4198;SDS011;2113;50.946;14.610;2023-06-22T07:40:12;14.10;;;12.60;;
4198;SDS011;2113;50.946;14.610;2023-06-22T07:42:40;14.30;;;12.10;;
4198;SDS011;2113;50.946;14.610;2023-06-22T07:45:08;12.83;;;10.70;;
4198;SDS011;2113;50.946;14.610;2023-06-22T07:47:37;14.97;;;12.40;;
4198;SDS011;2113;50.946;14.610;2023-06-22T07:50:05;14.03;;;11.87;;
4198;SDS011;2113;50.946;14.610;2023-06-22T07:52:35;15.20;;;12.77;;
4198;SDS011;2113;50.946;14.610;2023-06-22T07:55:03;12.30;;;11.00;;
4198;SDS011;2113;50.946;14.610;2023-06-22T07:57:32;12.67;;;11.37;;
4198;SDS011;2113;50.946;14.610;2023-06-22T08:00:02;13.87;;;12.50;;
4198;SDS011;2113;50.946;14.610;2023-06-22T08:02:42;13.30;;;11.90;;
4198;SDS011;2113;50.946;14.610;2023-06-22T08:05:13;13.33;;;12.03;;
4198;SDS011;2113;50.946;14.610;2023-06-22T08:08:01;12.77;;;11.57;;
4198;SDS011;2113;50.946;14.610;2023-06-22T08:10:29;12.90;;;11.60;;
4198;SDS011;2113;50.946;14.610;2023-06-22T08:12:57;13.77;;;12.43;;
4198;SDS011;2113;50.946;14.610;2023-06-22T08:15:25;14.27;;;11.07;;
4198;SDS011;2113;50.946;14.610;2023-06-22T08:17:55;41.97;;;15.67;;
4198;SDS011;2113;50.946;14.610;2023-06-22T08:20:24;22.47;;;13.70;;
4198;SDS011;2113;50.946;14.610;2023-06-22T08:22:53;12.70;;;11.50;;
4198;SDS011;2113;50.946;14.610;2023-06-22T08:25:23;13.80;;;12.33;;
4198;SDS011;2113;50.946;14.610;2023-06-22T08:27:51;14.77;;;12.80;;
4198;SDS011;2113;50.946;14.610;2023-06-22T08:30:19;14.33;;;12.23;;
4198;SDS011;2113;50.946;14.610;2023-06-22T08:32:47;11.67;;;10.47;;
4198;SDS011;2113;50.946;14.610;2023-06-22T08:35:15;12.60;;;11.40;;
4198;SDS011;2113;50.946;14.610;2023-06-22T08:37:43;13.73;;;11.17;;
4198;SDS011;2113;50.946;14.610;2023-06-22T08:40:19;12.80;;;11.57;;
4198;SDS011;2113;50.946;14.610;2023-06-22T08:42:49;13.80;;;11.40;;
4198;SDS011;2113;50.946;14.610;2023-06-22T08:45:17;12.80;;;11.50;;
4198;SDS011;2113;50.946;14.610;2023-06-22T08:47:45;15.00;;;11.33;;
4198;SDS011;2113;50.946;14.610;2023-06-22T08:50:13;13.37;;;11.87;;
4198;SDS011;2113;50.946;14.610;2023-06-22T08:52:42;12.23;;;10.90;;
4198;SDS011;2113;50.946;14.610;2023-06-22T08:55:12;13.00;;;11.60;;
4198;SDS011;2113;50.946;14.610;2023-06-22T08:57:41;12.23;;;9.90;;
4198;SDS011;2113;50.946;14.610;2023-06-22T09:00:12;16.60;;;10.83;;
4198;SDS011;2113;50.946;14.610;2023-06-22T09:02:45;12.90;;;11.50;;
4198;SDS011;2113;50.946;14.610;2023-06-22T09:05:14;13.93;;;12.60;;
4198;SDS011;2113;50.946;14.610;2023-06-22T09:07:43;15.50;;;12.53;;
4198;SDS011;2113;50.946;14.610;2023-06-22T09:10:11;13.43;;;12.10;;
4198;SDS011;2113;50.946;14.610;2023-06-22T09:12:39;13.10;;;11.60;;
4198;SDS011;2113;50.946;14.610;2023-06-22T09:15:07;13.33;;;11.20;;
4198;SDS011;2113;50.946;14.610;2023-06-22T09:17:44;18.80;;;12.03;;
4198;SDS011;2113;50.946;14.610;2023-06-22T09:20:14;14.17;;;12.73;;
4198;SDS011;2113;50.946;14.610;2023-06-22T09:22:42;12.47;;;11.17;;
4198;SDS011;2113;50.946;14.610;2023-06-22T09:25:10;12.63;;;10.30;;
4198;SDS011;2113;50.946;14.610;2023-06-22T09:27:39;15.87;;;11.70;;
4198;SDS011;2113;50.946;14.610;2023-06-22T09:30:07;11.57;;;10.37;;
4198;SDS011;2113;50.946;14.610;2023-06-22T09:32:36;13.37;;;10.13;;
4198;SDS011;2113;50.946;14.610;2023-06-22T09:35:06;11.20;;;10.10;;
4198;SDS011;2113;50.946;14.610;2023-06-22T09:37:36;13.07;;;9.83;;
4198;SDS011;2113;50.946;14.610;2023-06-22T09:40:05;14.57;;;10.70;;
4198;SDS011;2113;50.946;14.610;2023-06-22T09:42:37;12.40;;;9.97;;
4198;SDS011;2113;50.946;14.610;2023-06-22T09:45:06;13.30;;;9.90;;
4198;SDS011;2113;50.946;14.610;2023-06-22T09:47:34;12.53;;;10.50;;
4198;SDS011;2113;50.946;14.610;2023-06-22T09:50:03;11.30;;;10.30;;
4198;SDS011;2113;50.946;14.610;2023-06-22T09:52:33;11.60;;;10.17;;
4198;SDS011;2113;50.946;14.610;2023-06-22T09:55:14;11.00;;;9.90;;
4198;SDS011;2113;50.946;14.610;2023-06-22T09:57:43;10.70;;;9.60;;
4198;SDS011;2113;50.946;14.610;2023-06-22T10:00:12;11.70;;;9.87;;
4198;SDS011;2113;50.946;14.610;2023-06-22T10:02:41;10.63;;;9.53;;
4198;SDS011;2113;50.946;14.610;2023-06-22T10:05:11;12.17;;;10.90;;
4198;SDS011;2113;50.946;14.610;2023-06-22T10:07:41;12.67;;;11.47;;
4198;SDS011;2113;50.946;14.610;2023-06-22T10:10:11;10.60;;;9.60;;
4198;SDS011;2113;50.946;14.610;2023-06-22T10:12:45;12.97;;;10.40;;
4198;SDS011;2113;50.946;14.610;2023-06-22T10:15:14;12.20;;;11.00;;
4198;SDS011;2113;50.946;14.610;2023-06-22T10:17:43;12.70;;;10.63;;
4198;SDS011;2113;50.946;14.610;2023-06-22T10:20:11;14.10;;;10.03;;
4198;SDS011;2113;50.946;14.610;2023-06-22T10:22:41;10.27;;;9.30;;
4198;SDS011;2113;50.946;14.610;2023-06-22T10:25:11;10.43;;;9.43;;
4198;SDS011;2113;50.946;14.610;2023-06-22T10:27:40;14.30;;;11.67;;
4198;SDS011;2113;50.946;14.610;2023-06-22T10:30:08;12.03;;;10.70;;
4198;SDS011;2113;50.946;14.610;2023-06-22T10:32:39;10.43;;;9.30;;
4198;SDS011;2113;50.946;14.610;2023-06-22T10:35:09;11.63;;;9.70;;
4198;SDS011;2113;50.946;14.610;2023-06-22T10:37:42;12.67;;;10.23;;
4198;SDS011;2113;50.946;14.610;2023-06-22T10:40:11;14.77;;;11.17;;
4198;SDS011;2113;50.946;14.610;2023-06-22T10:42:42;11.27;;;10.27;;
4198;SDS011;2113;50.946;14.610;2023-06-22T10:45:10;13.07;;;9.83;;
4198;SDS011;2113;50.946;14.610;2023-06-22T10:47:39;12.60;;;11.30;;
4198;SDS011;2113;50.946;14.610;2023-06-22T10:50:09;10.60;;;9.57;;
4198;SDS011;2113;50.946;14.610;2023-06-22T10:52:38;11.87;;;9.13;;
4198;SDS011;2113;50.946;14.610;2023-06-22T10:55:07;10.90;;;9.90;;
4198;SDS011;2113;50.946;14.610;2023-06-22T10:57:36;11.80;;;10.60;;
4198;SDS011;2113;50.946;14.610;2023-06-22T11:00:09;13.13;;;10.23;;
4198;SDS011;2113;50.946;14.610;2023-06-22T11:02:38;11.00;;;9.90;;
4198;SDS011;2113;50.946;14.610;2023-06-22T11:05:07;11.93;;;10.73;;
4198;SDS011;2113;50.946;14.610;2023-06-22T11:07:37;11.93;;;10.77;;
4198;SDS011;2113;50.946;14.610;2023-06-22T11:10:11;12.00;;;10.80;;
4198;SDS011;2113;50.946;14.610;2023-06-22T11:12:40;11.93;;;10.40;;
4198;SDS011;2113;50.946;14.610;2023-06-22T11:15:09;11.80;;;10.43;;
4198;SDS011;2113;50.946;14.610;2023-06-22T11:17:37;15.87;;;11.47;;
4198;SDS011;2113;50.946;14.610;2023-06-22T11:20:05;12.40;;;11.10;;
4198;SDS011;2113;50.946;14.610;2023-06-22T11:22:37;14.40;;;11.90;;
4198;SDS011;2113;50.946;14.610;2023-06-22T11:25:06;12.70;;;11.40;;
4198;SDS011;2113;50.946;14.610;2023-06-22T11:27:36;13.87;;;12.30;;
4198;SDS011;2113;50.946;14.610;2023-06-22T11:30:05;14.13;;;11.70;;
4198;SDS011;2113;50.946;14.610;2023-06-22T11:32:34;13.10;;;11.63;;
4198;SDS011;2113;50.946;14.610;2023-06-22T11:35:02;15.40;;;11.00;;
4198;SDS011;2113;50.946;14.610;2023-06-22T11:37:31;11.33;;;10.13;;
4198;SDS011;2113;50.946;14.610;2023-06-22T11:44:06;14.33;;;11.50;;
4198;SDS011;2113;50.946;14.610;2023-06-22T11:46:47;12.40;;;11.17;;
4198;SDS011;2113;50.946;14.610;2023-06-22T11:49:16;15.03;;;12.40;;
4198;SDS011;2113;50.946;14.610;2023-06-22T11:51:44;11.80;;;10.60;;
4198;SDS011;2113;50.946;14.610;2023-06-22T11:54:12;11.87;;;10.67;;
4198;SDS011;2113;50.946;14.610;2023-06-22T11:56:40;15.10;;;11.40;;
4198;SDS011;2113;50.946;14.610;2023-06-22T11:59:09;13.13;;;10.53;;
4198;SDS011;2113;50.946;14.610;2023-06-22T12:01:37;12.40;;;11.10;;
4198;SDS011;2113;50.946;14.610;2023-06-22T12:04:05;17.40;;;11.07;;
4198;SDS011;2113;50.946;14.610;2023-06-22T12:06:33;11.17;;;9.43;;
4198;SDS011;2113;50.946;14.610;2023-06-22T12:09:04;13.17;;;10.57;;
4198;SDS011;2113;50.946;14.610;2023-06-22T12:11:32;12.97;;;10.97;;
4198;SDS011;2113;50.946;14.610;2023-06-22T12:14:00;12.37;;;10.70;;
4198;SDS011;2113;50.946;14.610;2023-06-22T12:16:30;11.77;;;10.67;;
4198;SDS011;2113;50.946;14.610;2023-06-22T12:18:58;11.90;;;10.70;;
4198;SDS011;2113;50.946;14.610;2023-06-22T12:21:26;14.43;;;11.20;;
4198;SDS011;2113;50.946;14.610;2023-06-22T12:23:55;13.67;;;10.73;;
4198;SDS011;2113;50.946;14.610;2023-06-22T12:26:23;13.80;;;11.00;;
4198;SDS011;2113;50.946;14.610;2023-06-22T12:28:51;18.27;;;12.10;;
4198;SDS011;2113;50.946;14.610;2023-06-22T12:31:19;14.23;;;12.83;;
4198;SDS011;2113;50.946;14.610;2023-06-22T12:33:49;11.70;;;10.60;;
4198;SDS011;2113;50.946;14.610;2023-06-22T12:36:17;13.23;;;11.83;;
4198;SDS011;2113;50.946;14.610;2023-06-22T12:38:45;15.13;;;11.43;;
4198;SDS011;2113;50.946;14.610;2023-06-22T12:41:13;12.27;;;11.03;;
4198;SDS011;2113;50.946;14.610;2023-06-22T12:43:41;12.37;;;11.20;;
4198;SDS011;2113;50.946;14.610;2023-06-22T12:46:09;13.70;;;11.87;;
4198;SDS011;2113;50.946;14.610;2023-06-22T12:48:37;12.87;;;11.57;;
4198;SDS011;2113;50.946;14.610;2023-06-22T12:51:10;12.90;;;11.17;;
4198;SDS011;2113;50.946;14.610;2023-06-22T12:53:38;17.70;;;11.60;;
4198;SDS011;2113;50.946;14.610;2023-06-22T12:56:06;13.00;;;11.80;;
4198;SDS011;2113;50.946;14.610;2023-06-22T12:58:34;11.70;;;10.50;;
4198;SDS011;2113;50.946;14.610;2023-06-22T13:01:02;13.07;;;11.80;;
4198;SDS011;2113;50.946;14.610;2023-06-22T13:03:30;12.13;;;10.53;;
4198;SDS011;2113;50.946;14.610;2023-06-22T13:05:58;12.13;;;10.90;;
4198;SDS011;2113;50.946;14.610;2023-06-22T13:08:28;11.77;;;10.67;;
4198;SDS011;2113;50.946;14.610;2023-06-22T13:11:16;13.53;;;11.40;;
4198;SDS011;2113;50.946;14.610;2023-06-22T13:13:44;15.57;;;11.97;;
4198;SDS011;2113;50.946;14.610;2023-06-22T13:16:13;13.97;;;12.47;;
4198;SDS011;2113;50.946;14.610;2023-06-22T13:18:41;12.17;;;11.00;;
4198;SDS011;2113;50.946;14.610;2023-06-22T13:21:09;14.30;;;11.37;;
4198;SDS011;2113;50.946;14.610;2023-06-22T13:23:38;14.93;;;11.70;;
4198;SDS011;2113;50.946;14.610;2023-06-22T13:26:07;12.10;;;11.00;;
4198;SDS011;2113;50.946;14.610;2023-06-22T13:28:35;12.83;;;11.63;;
4198;SDS011;2113;50.946;14.610;2023-06-22T13:31:03;13.80;;;12.40;;
4198;SDS011;2113;50.946;14.610;2023-06-22T13:33:32;13.10;;;11.40;;
4198;SDS011;2113;50.946;14.610;2023-06-22T13:36:00;12.10;;;10.90;;
4198;SDS011;2113;50.946;14.610;2023-06-22T13:38:30;15.10;;;13.60;;
4198;SDS011;2113;50.946;14.610;2023-06-22T13:41:01;13.87;;;11.80;;
4198;SDS011;2113;50.946;14.610;2023-06-22T13:43:29;14.10;;;12.80;;
4198;SDS011;2113;50.946;14.610;2023-06-22T13:45:57;14.67;;;13.17;;
4198;SDS011;2113;50.946;14.610;2023-06-22T13:48:25;14.23;;;12.43;;
4198;SDS011;2113;50.946;14.610;2023-06-22T13:50:55;13.10;;;10.93;;
4198;SDS011;2113;50.946;14.610;2023-06-22T13:53:24;15.03;;;13.60;;
4198;SDS011;2113;50.946;14.610;2023-06-22T13:55:52;15.13;;;13.07;;
4198;SDS011;2113;50.946;14.610;2023-06-22T13:58:21;13.20;;;11.90;;
4198;SDS011;2113;50.946;14.610;2023-06-22T14:00:49;14.37;;;12.87;;
4198;SDS011;2113;50.946;14.610;2023-06-22T14:03:19;16.40;;;12.97;;
4198;SDS011;2113;50.946;14.610;2023-06-22T14:05:47;14.40;;;12.90;;
4198;SDS011;2113;50.946;14.610;2023-06-22T14:08:15;14.73;;;12.80;;
4198;SDS011;2113;50.946;14.610;2023-06-22T14:11:03;14.13;;;12.70;;
4198;SDS011;2113;50.946;14.610;2023-06-22T14:13:33;14.03;;;12.63;;
4198;SDS011;2113;50.946;14.610;2023-06-22T14:16:02;13.90;;;12.43;;
4198;SDS011;2113;50.946;14.610;2023-06-22T14:18:32;13.53;;;11.90;;
4198;SDS011;2113;50.946;14.610;2023-06-22T14:21:00;14.03;;;12.60;;
4198;SDS011;2113;50.946;14.610;2023-06-22T14:23:28;12.50;;;11.20;;
4198;SDS011;2113;50.946;14.610;2023-06-22T14:25:56;15.07;;;13.40;;
4198;SDS011;2113;50.946;14.610;2023-06-22T14:28:25;12.67;;;11.37;;
4198;SDS011;2113;50.946;14.610;2023-06-22T14:30:54;16.50;;;14.80;;
4198;SDS011;2113;50.946;14.610;2023-06-22T14:33:22;15.07;;;12.60;;
4198;SDS011;2113;50.946;14.610;2023-06-22T14:35:51;17.67;;;12.67;;
4198;SDS011;2113;50.946;14.610;2023-06-22T14:38:19;21.90;;;13.33;;
4198;SDS011;2113;50.946;14.610;2023-06-22T14:40:48;14.67;;;12.00;;
4198;SDS011;2113;50.946;14.610;2023-06-22T14:43:36;13.77;;;12.53;;
4198;SDS011;2113;50.946;14.610;2023-06-22T14:46:05;14.53;;;13.03;;
4198;SDS011;2113;50.946;14.610;2023-06-22T14:48:33;13.97;;;12.50;;
4198;SDS011;2113;50.946;14.610;2023-06-22T14:51:01;12.70;;;11.40;;
4198;SDS011;2113;50.946;14.610;2023-06-22T14:53:30;13.53;;;12.13;;
4198;SDS011;2113;50.946;14.610;2023-06-22T14:55:58;12.33;;;11.13;;